Twr-7 — TWR-7 — position and weather

sailwx.info

Track history (hours):
 
Tides and Currents Weather Stations Pressure Air Temp Water Temp Dewpoint Dewpoint Depression Visibility Wind Speed Wind Dir Waves Ship Positions

Twr-7

Last reported at 2016-May-06 20:32 UTC. Time now 2016-Jun-27 06:03 UTC.
Position N 47°46' W 122°45'.
Warning: this ship's position is 51 days out of date.

; draft 1.5 m.

Type: Military. MMSI: 369970258.

Date/timePositionNaut miles runAvg speedWind from/ knotsBaromVisibWave heightAir tempDewpointWater temp
2016-May-06 20:32N 47°46' W 122°45'1614.2
2016-May-06 19:24N 48°01' W 122°39'3217.6
2016-May-06 17:33N 48°28' W 123°08'2019.4
2016-May-06 16:33N 48°45' W 123°19'3316.3
2016-May-06 14:32N 49°10' W 123°53'13 0.6
2016-May-05 15:26N 49°20' W 124°05'5 5.6
2016-May-05 14:33N 49°16' W 124°07'1 0.0
2016-May-03 23:12N 49°16' W 124°09'0 0.8
2016-May-03 22:33N 49°16' W 124°09'8 7.1
2016-May-03 21:27N 49°21' W 123°59'8 0.4
2016-May-02 23:26N 49°16' W 124°09'8 7.9
2016-May-02 22:28N 49°18' W 123°58'0 0.1
2016-May-02 21:33N 49°18' W 123°58'5 5.1
2016-May-02 20:29N 49°20' W 124°06'0 0.3
2016-May-02 19:33N 49°19' W 124°06'0 0.4
2016-May-02 18:34N 49°19' W 124°05'0 0.3
2016-May-02 17:33N 49°20' W 124°05'0 0.2
2016-May-02 16:33N 49°20' W 124°05'2 1.9
2016-May-02 15:32N 49°18' W 124°03'5 0.1
2016-Apr-30 16:17N 49°15' W 123°57'5 6.6
2016-Apr-30 15:33N 49°10' W 123°56'2 2.4
2016-Apr-30 14:34N 49°12' W 123°55'  
Track history (hours):
 
Tides and Currents Weather Stations Pressure Air Temp Water Temp Dewpoint Dewpoint Depression Visibility Wind Speed Wind Dir Waves Ship Positions

Twr-7

Last reported at 2016-May-06 20:32 UTC. Time now 2016-Jun-27 06:03 UTC.
Position N 47°46' W 122°45'.
Warning: this ship's position is 51 days out of date.

; draft 1.5 m.

Type: Military. MMSI: 369970258.

Date/timePositionNaut miles runAvg speedWind from/ knotsBaromVisibWave heightAir tempDewpointWater temp
2016-May-06 20:32N 47°46' W 122°45'1614.2
2016-May-06 19:24N 48°01' W 122°39'3217.6
2016-May-06 17:33N 48°28' W 123°08'2019.4
2016-May-06 16:33N 48°45' W 123°19'3316.3
2016-May-06 14:32N 49°10' W 123°53'13 0.6
2016-May-05 15:26N 49°20' W 124°05'5 5.6
2016-May-05 14:33N 49°16' W 124°07'1 0.0
2016-May-03 23:12N 49°16' W 124°09'0 0.8
2016-May-03 22:33N 49°16' W 124°09'8 7.1
2016-May-03 21:27N 49°21' W 123°59'8 0.4
2016-May-02 23:26N 49°16' W 124°09'8 7.9
2016-May-02 22:28N 49°18' W 123°58'0 0.1
2016-May-02 21:33N 49°18' W 123°58'5 5.1
2016-May-02 20:29N 49°20' W 124°06'0 0.3
2016-May-02 19:33N 49°19' W 124°06'0 0.4
2016-May-02 18:34N 49°19' W 124°05'0 0.3
2016-May-02 17:33N 49°20' W 124°05'0 0.2
2016-May-02 16:33N 49°20' W 124°05'2 1.9
2016-May-02 15:32N 49°18' W 124°03'5 0.1
2016-Apr-30 16:17N 49°15' W 123°57'5 6.6
2016-Apr-30 15:33N 49°10' W 123°56'2 2.4
2016-Apr-30 14:34N 49°12' W 123°55'  

Dump ship's entire track history